sensor_id;sensor_type;location;lat;lon;timestamp;pressure;altitude;pressure_sealevel;temperature;humidity
69535;BME280;56754;51.568;5.048;2022-09-09T00:00:17;100717.16;;;21.33;61.98
69535;BME280;56754;51.568;5.048;2022-09-09T00:02:49;100710.16;;;21.32;61.60
69535;BME280;56754;51.568;5.048;2022-09-09T00:07:47;100716.34;;;21.29;61.60
69535;BME280;56754;51.568;5.048;2022-09-09T00:10:20;100717.53;;;21.28;61.99
69535;BME280;56754;51.568;5.048;2022-09-09T00:13:22;100710.16;;;21.28;61.96
69535;BME280;56754;51.568;5.048;2022-09-09T00:21:16;100703.53;;;21.22;61.86
69535;BME280;56754;51.568;5.048;2022-09-09T00:23:47;100708.19;;;21.22;61.65
69535;BME280;56754;51.568;5.048;2022-09-09T00:31:38;100691.06;;;21.18;61.79
69535;BME280;56754;51.568;5.048;2022-09-09T00:34:18;100685.28;;;21.16;61.69
69535;BME280;56754;51.568;5.048;2022-09-09T00:36:48;100690.72;;;21.16;61.60
69535;BME280;56754;51.568;5.048;2022-09-09T00:39:42;100682.91;;;21.14;61.97
69535;BME280;56754;51.568;5.048;2022-09-09T00:42:15;100684.09;;;21.13;61.90
69535;BME280;56754;51.568;5.048;2022-09-09T00:45:02;100680.59;;;21.12;61.95
69535;BME280;56754;51.568;5.048;2022-09-09T00:47:45;100688.34;;;21.10;62.15
69535;BME280;56754;51.568;5.048;2022-09-09T00:50:45;100683.31;;;21.09;61.68
69535;BME280;56754;51.568;5.048;2022-09-09T00:54:15;100672.81;;;21.07;61.73
69535;BME280;56754;51.568;5.048;2022-09-09T00:56:31;100677.09;;;21.05;61.59
69535;BME280;56754;51.568;5.048;2022-09-09T01:01:36;100680.19;;;21.03;61.43
69535;BME280;56754;51.568;5.048;2022-09-09T01:04:06;100675.91;;;21.02;61.67
69535;BME280;56754;51.568;5.048;2022-09-09T01:06:38;100671.63;;;21.01;61.68
69535;BME280;56754;51.568;5.048;2022-09-09T01:09:25;100675.53;;;21.00;62.17
69535;BME280;56754;51.568;5.048;2022-09-09T01:14:48;100669.69;;;20.98;62.04
69535;BME280;56754;51.568;5.048;2022-09-09T01:17:26;100670.88;;;20.97;61.71
69535;BME280;56754;51.568;5.048;2022-09-09T01:20:08;100663.84;;;20.96;61.94
69535;BME280;56754;51.568;5.048;2022-09-09T01:28:16;100642.88;;;20.93;61.57
69535;BME280;56754;51.568;5.048;2022-09-09T01:30:44;100644.06;;;20.92;61.94
69535;BME280;56754;51.568;5.048;2022-09-09T01:33:14;100646.00;;;20.92;61.41
69535;BME280;56754;51.568;5.048;2022-09-09T01:38:11;100649.88;;;20.90;61.84
69535;BME280;56754;51.568;5.048;2022-09-09T01:40:37;100645.59;;;20.89;61.63
69535;BME280;56754;51.568;5.048;2022-09-09T01:43:03;100644.81;;;20.89;61.88
69535;BME280;56754;51.568;5.048;2022-09-09T01:45:30;100640.53;;;20.88;61.73
69535;BME280;56754;51.568;5.048;2022-09-09T01:47:55;100640.53;;;20.88;61.44
69535;BME280;56754;51.568;5.048;2022-09-09T01:50:21;100642.47;;;20.87;61.86
69535;BME280;56754;51.568;5.048;2022-09-09T01:52:52;100636.28;;;20.87;61.95
69535;BME280;56754;51.568;5.048;2022-09-09T01:55:32;100640.94;;;20.86;61.58
69535;BME280;56754;51.568;5.048;2022-09-09T01:58:15;100635.88;;;20.85;62.11
69535;BME280;56754;51.568;5.048;2022-09-09T02:01:01;100631.63;;;20.84;61.77
69535;BME280;56754;51.568;5.048;2022-09-09T02:03:29;100642.88;;;20.82;61.83
69535;BME280;56754;51.568;5.048;2022-09-09T02:08:59;100628.88;;;20.80;61.85
69535;BME280;56754;51.568;5.048;2022-09-09T02:11:27;100630.84;;;20.80;61.92
69535;BME280;56754;51.568;5.048;2022-09-09T02:13:57;100628.50;;;20.78;62.09
69535;BME280;56754;51.568;5.048;2022-09-09T02:16:39;100631.97;;;20.79;62.09
69535;BME280;56754;51.568;5.048;2022-09-09T02:19:27;100630.44;;;20.78;62.03
69535;BME280;56754;51.568;5.048;2022-09-09T02:21:55;100634.31;;;20.77;62.09
69535;BME280;56754;51.568;5.048;2022-09-09T02:24:22;100632.75;;;20.76;62.13
69535;BME280;56754;51.568;5.048;2022-09-09T02:26:49;100627.72;;;20.74;61.74
69535;BME280;56754;51.568;5.048;2022-09-09T02:29:24;100629.66;;;20.74;62.15
69535;BME280;56754;51.568;5.048;2022-09-09T02:31:52;100622.66;;;20.73;62.08
69535;BME280;56754;51.568;5.048;2022-09-09T02:34:21;100621.09;;;20.72;62.14
69535;BME280;56754;51.568;5.048;2022-09-09T02:36:49;100619.94;;;20.73;62.01
69535;BME280;56754;51.568;5.048;2022-09-09T02:39:15;100614.13;;;20.71;62.04
69535;BME280;56754;51.568;5.048;2022-09-09T02:41:41;100623.41;;;20.70;61.92
69535;BME280;56754;51.568;5.048;2022-09-09T02:44:12;100618.75;;;20.70;61.51
69535;BME280;56754;51.568;5.048;2022-09-09T02:50:19;100610.22;;;20.68;61.92
69535;BME280;56754;51.568;5.048;2022-09-09T02:52:21;100612.94;;;20.68;61.99
69535;BME280;56754;51.568;5.048;2022-09-09T02:55:04;100615.66;;;20.68;62.21
69535;BME280;56754;51.568;5.048;2022-09-09T02:57:32;100614.09;;;20.67;62.01
69535;BME280;56754;51.568;5.048;2022-09-09T02:59:58;100613.31;;;20.66;61.83
69535;BME280;56754;51.568;5.048;2022-09-09T03:02:24;100621.47;;;20.66;61.85
69535;BME280;56754;51.568;5.048;2022-09-09T03:04:50;100617.19;;;20.65;61.76
69535;BME280;56754;51.568;5.048;2022-09-09T03:07:15;100625.34;;;20.65;61.59
69535;BME280;56754;51.568;5.048;2022-09-09T03:09:40;100624.94;;;20.63;61.80
69535;BME280;56754;51.568;5.048;2022-09-09T03:12:06;100623.78;;;20.64;61.48
69535;BME280;56754;51.568;5.048;2022-09-09T03:14:31;100621.06;;;20.64;62.24
69535;BME280;56754;51.568;5.048;2022-09-09T03:16:56;100629.59;;;20.63;62.08
69535;BME280;56754;51.568;5.048;2022-09-09T03:19:22;100620.69;;;20.62;61.89
69535;BME280;56754;51.568;5.048;2022-09-09T03:21:47;100617.97;;;20.62;61.69
69535;BME280;56754;51.568;5.048;2022-09-09T03:24:13;100628.06;;;20.62;61.35
69535;BME280;56754;51.568;5.048;2022-09-09T03:26:38;100633.50;;;20.62;61.50
69535;BME280;56754;51.568;5.048;2022-09-09T03:29:04;100626.47;;;20.61;62.21
69535;BME280;56754;51.568;5.048;2022-09-09T03:31:29;100633.09;;;20.60;61.58
69535;BME280;56754;51.568;5.048;2022-09-09T03:33:54;100618.72;;;20.59;61.28
69535;BME280;56754;51.568;5.048;2022-09-09T03:36:20;100617.97;;;20.59;61.73
69535;BME280;56754;51.568;5.048;2022-09-09T03:38:45;100621.81;;;20.58;61.69
69535;BME280;56754;51.568;5.048;2022-09-09T03:41:10;100608.25;;;20.58;61.87
69535;BME280;56754;51.568;5.048;2022-09-09T03:43:35;100616.38;;;20.58;61.98
69535;BME280;56754;51.568;5.048;2022-09-09T03:46:01;100603.22;;;20.56;61.95
69535;BME280;56754;51.568;5.048;2022-09-09T03:48:26;100613.28;;;20.56;61.96
69535;BME280;56754;51.568;5.048;2022-09-09T03:50:53;100612.50;;;20.55;61.90
69535;BME280;56754;51.568;5.048;2022-09-09T03:53:20;100609.41;;;20.53;61.77
69535;BME280;56754;51.568;5.048;2022-09-09T03:55:46;100604.75;;;20.54;61.63
69535;BME280;56754;51.568;5.048;2022-09-09T03:58:16;100608.59;;;20.53;61.85
69535;BME280;56754;51.568;5.048;2022-09-09T04:00:42;100616.75;;;20.53;61.44
69535;BME280;56754;51.568;5.048;2022-09-09T04:03:08;100615.97;;;20.52;60.84
69535;BME280;56754;51.568;5.048;2022-09-09T04:05:33;100602.78;;;20.51;61.47
69535;BME280;56754;51.568;5.048;2022-09-09T04:07:59;100610.13;;;20.50;61.38
69535;BME280;56754;51.568;5.048;2022-09-09T04:10:24;100606.63;;;20.50;61.32
69535;BME280;56754;51.568;5.048;2022-09-09T04:12:49;100608.56;;;20.49;61.30
69535;BME280;56754;51.568;5.048;2022-09-09T04:15:15;100605.84;;;20.49;61.35
69535;BME280;56754;51.568;5.048;2022-09-09T04:17:40;100608.19;;;20.47;61.05
69535;BME280;56754;51.568;5.048;2022-09-09T04:20:05;100610.09;;;20.46;61.83
69535;BME280;56754;51.568;5.048;2022-09-09T04:22:30;100608.19;;;20.47;61.25
69535;BME280;56754;51.568;5.048;2022-09-09T04:24:56;100606.63;;;20.46;61.33
69535;BME280;56754;51.568;5.048;2022-09-09T04:27:21;100600.41;;;20.45;61.78
69535;BME280;56754;51.568;5.048;2022-09-09T04:29:46;100611.66;;;20.44;61.58
69535;BME280;56754;51.568;5.048;2022-09-09T04:32:11;100602.34;;;20.41;61.10
69535;BME280;56754;51.568;5.048;2022-09-09T04:34:37;100593.44;;;20.41;61.83
69535;BME280;56754;51.568;5.048;2022-09-09T04:37:02;100602.72;;;20.40;61.60
69535;BME280;56754;51.568;5.048;2022-09-09T04:39:27;100600.00;;;20.40;61.04
69535;BME280;56754;51.568;5.048;2022-09-09T04:41:53;100586.41;;;20.40;61.24
69535;BME280;56754;51.568;5.048;2022-09-09T04:44:18;100588.38;;;20.39;61.20
69535;BME280;56754;51.568;5.048;2022-09-09T04:46:43;100582.16;;;20.39;61.44
69535;BME280;56754;51.568;5.048;2022-09-09T04:49:08;100584.09;;;20.38;61.72
69535;BME280;56754;51.568;5.048;2022-09-09T04:51:34;100575.16;;;20.38;61.68
69535;BME280;56754;51.568;5.048;2022-09-09T04:53:59;100579.81;;;20.37;61.69
69535;BME280;56754;51.568;5.048;2022-09-09T04:56:24;100583.31;;;20.38;62.00
69535;BME280;56754;51.568;5.048;2022-09-09T04:58:50;100580.59;;;20.38;61.36
69535;BME280;56754;51.568;5.048;2022-09-09T05:01:20;100573.63;;;20.37;61.78
69535;BME280;56754;51.568;5.048;2022-09-09T05:03:46;100560.44;;;20.35;61.84
69535;BME280;56754;51.568;5.048;2022-09-09T05:06:15;100568.59;;;20.35;62.71
69535;BME280;56754;51.568;5.048;2022-09-09T05:08:43;100564.28;;;20.34;61.45
69535;BME280;56754;51.568;5.048;2022-09-09T05:13:48;100568.19;;;20.33;61.38
69535;BME280;56754;51.568;5.048;2022-09-09T05:16:14;100571.66;;;20.34;61.30
69535;BME280;56754;51.568;5.048;2022-09-09T05:18:40;100574.38;;;20.34;61.67
69535;BME280;56754;51.568;5.048;2022-09-09T05:21:06;100573.59;;;20.33;61.28
69535;BME280;56754;51.568;5.048;2022-09-09T05:23:33;100575.94;;;20.35;61.47
69535;BME280;56754;51.568;5.048;2022-09-09T05:25:59;100577.88;;;20.34;60.90
69535;BME280;56754;51.568;5.048;2022-09-09T05:28:25;100578.63;;;20.35;61.28
69535;BME280;56754;51.568;5.048;2022-09-09T05:31:01;100575.94;;;20.35;61.60
69535;BME280;56754;51.568;5.048;2022-09-09T05:33:28;100577.50;;;20.36;61.06
69535;BME280;56754;51.568;5.048;2022-09-09T05:36:07;100572.06;;;20.36;62.46
69535;BME280;56754;51.568;5.048;2022-09-09T05:38:33;100576.34;;;20.37;60.73
69535;BME280;56754;51.568;5.048;2022-09-09T05:41:00;100581.75;;;20.37;62.11
69535;BME280;56754;51.568;5.048;2022-09-09T05:43:26;100579.03;;;20.37;60.92
69535;BME280;56754;51.568;5.048;2022-09-09T05:48:28;100586.03;;;20.38;61.24
69535;BME280;56754;51.568;5.048;2022-09-09T05:50:55;100587.59;;;20.39;61.60
69535;BME280;56754;51.568;5.048;2022-09-09T05:53:20;100571.31;;;20.39;61.00
69535;BME280;56754;51.568;5.048;2022-09-09T05:55:45;100574.03;;;20.39;61.05
69535;BME280;56754;51.568;5.048;2022-09-09T05:58:11;100578.28;;;20.40;61.50
69535;BME280;56754;51.568;5.048;2022-09-09T06:00:36;100582.56;;;20.41;61.63
69535;BME280;56754;51.568;5.048;2022-09-09T06:03:02;100582.19;;;20.42;61.16
69535;BME280;56754;51.568;5.048;2022-09-09T06:05:27;100580.22;;;20.43;61.20
69535;BME280;56754;51.568;5.048;2022-09-09T06:07:53;100594.56;;;20.43;60.60
69535;BME280;56754;51.568;5.048;2022-09-09T06:10:18;100598.88;;;20.44;61.38
69535;BME280;56754;51.568;5.048;2022-09-09T06:12:43;100591.50;;;20.45;60.86
69535;BME280;56754;51.568;5.048;2022-09-09T06:15:09;100591.09;;;20.46;61.56
69535;BME280;56754;51.568;5.048;2022-09-09T06:17:34;100587.59;;;20.46;61.98
69535;BME280;56754;51.568;5.048;2022-09-09T06:19:59;100585.66;;;20.46;61.55
69535;BME280;56754;51.568;5.048;2022-09-09T06:22:25;100596.94;;;20.49;60.98
69535;BME280;56754;51.568;5.048;2022-09-09T06:24:50;100585.31;;;20.48;60.70
69535;BME280;56754;51.568;5.048;2022-09-09T06:27:15;100580.28;;;20.50;61.76
69535;BME280;56754;51.568;5.048;2022-09-09T06:29:40;100584.53;;;20.51;61.35
69535;BME280;56754;51.568;5.048;2022-09-09T06:32:06;100584.97;;;20.53;60.81
69535;BME280;56754;51.568;5.048;2022-09-09T06:34:31;100584.56;;;20.55;62.02
69535;BME280;56754;51.568;5.048;2022-09-09T06:36:56;100579.91;;;20.55;61.02
69535;BME280;56754;51.568;5.048;2022-09-09T06:39:22;100576.06;;;20.56;60.76
69535;BME280;56754;51.568;5.048;2022-09-09T06:41:47;100579.94;;;20.59;60.35
69535;BME280;56754;51.568;5.048;2022-09-09T06:44:12;100584.97;;;20.60;60.88
69535;BME280;56754;51.568;5.048;2022-09-09T06:46:38;100576.84;;;20.60;61.49
69535;BME280;56754;51.568;5.048;2022-09-09T06:49:03;100584.59;;;20.62;62.12
69535;BME280;56754;51.568;5.048;2022-09-09T06:51:30;100577.22;;;20.62;60.70
69535;BME280;56754;51.568;5.048;2022-09-09T06:53:58;100574.13;;;20.64;61.29
69535;BME280;56754;51.568;5.048;2022-09-09T06:58:51;100567.56;;;20.68;60.72
69535;BME280;56754;51.568;5.048;2022-09-09T07:01:22;100566.78;;;20.75;60.72
69535;BME280;56754;51.568;5.048;2022-09-09T07:03:50;100570.69;;;20.81;60.57
69535;BME280;56754;51.568;5.048;2022-09-09T07:06:32;100574.97;;;20.86;60.43
69535;BME280;56754;51.568;5.048;2022-09-09T07:09:06;100574.97;;;20.89;60.35
69535;BME280;56754;51.568;5.048;2022-09-09T07:11:38;100576.91;;;20.93;59.93
69535;BME280;56754;51.568;5.048;2022-09-09T07:14:03;100575.75;;;20.94;60.09
69535;BME280;56754;51.568;5.048;2022-09-09T07:16:29;100579.25;;;20.98;60.75
69535;BME280;56754;51.568;5.048;2022-09-09T07:18:54;100572.28;;;21.00;60.66
69535;BME280;56754;51.568;5.048;2022-09-09T07:21:19;100569.94;;;21.02;60.12
69535;BME280;56754;51.568;5.048;2022-09-09T07:23:44;100579.25;;;21.05;60.18
69535;BME280;56754;51.568;5.048;2022-09-09T07:26:15;100576.16;;;21.06;59.96
69535;BME280;56754;51.568;5.048;2022-09-09T07:28:41;100583.91;;;21.08;59.83
69535;BME280;56754;51.568;5.048;2022-09-09T07:31:14;100579.66;;;21.10;60.35
69535;BME280;56754;51.568;5.048;2022-09-09T07:33:40;100573.44;;;21.13;59.94
69535;BME280;56754;51.568;5.048;2022-09-09T07:36:09;100575.78;;;21.15;60.16
69535;BME280;56754;51.568;5.048;2022-09-09T07:38:42;100566.06;;;21.18;60.36
69535;BME280;56754;51.568;5.048;2022-09-09T07:41:18;100578.88;;;21.21;59.99
69535;BME280;56754;51.568;5.048;2022-09-09T07:43:45;100577.31;;;21.23;59.57
69535;BME280;56754;51.568;5.048;2022-09-09T07:46:12;100578.50;;;21.26;59.51
69535;BME280;56754;51.568;5.048;2022-09-09T07:48:43;100573.84;;;21.26;59.36
69535;BME280;56754;51.568;5.048;2022-09-09T07:51:11;100578.91;;;21.28;59.69
69535;BME280;56754;51.568;5.048;2022-09-09T07:53:37;100577.72;;;21.29;59.54
69535;BME280;56754;51.568;5.048;2022-09-09T07:56:05;100572.69;;;21.27;59.10
69535;BME280;56754;51.568;5.048;2022-09-09T07:58:31;100576.94;;;21.28;58.95
69535;BME280;56754;51.568;5.048;2022-09-09T08:00:56;100570.75;;;21.28;59.97
69535;BME280;56754;51.568;5.048;2022-09-09T08:03:21;100571.13;;;21.30;59.28
69535;BME280;56754;51.568;5.048;2022-09-09T08:05:46;100582.78;;;21.30;59.91
69535;BME280;56754;51.568;5.048;2022-09-09T08:08:12;100586.28;;;21.31;58.71
69535;BME280;56754;51.568;5.048;2022-09-09T08:10:37;100578.13;;;21.31;58.64
69535;BME280;56754;51.568;5.048;2022-09-09T08:13:02;100576.94;;;21.32;59.56
69535;BME280;56754;51.568;5.048;2022-09-09T08:15:27;100587.81;;;21.32;59.34
69535;BME280;56754;51.568;5.048;2022-09-09T08:17:55;100578.50;;;21.33;59.06
69535;BME280;56754;51.568;5.048;2022-09-09T08:20:21;100582.00;;;21.33;59.37
69535;BME280;56754;51.568;5.048;2022-09-09T08:22:46;100583.94;;;21.33;58.70
69535;BME280;56754;51.568;5.048;2022-09-09T08:25:11;100590.94;;;21.34;59.78
69535;BME280;56754;51.568;5.048;2022-09-09T08:27:37;100585.94;;;21.36;59.95
69535;BME280;56754;51.568;5.048;2022-09-09T08:30:02;100582.03;;;21.37;58.80
69535;BME280;56754;51.568;5.048;2022-09-09T08:32:27;100585.13;;;21.35;59.29
69535;BME280;56754;51.568;5.048;2022-09-09T08:34:53;100591.72;;;21.34;58.50
69535;BME280;56754;51.568;5.048;2022-09-09T08:37:18;100585.50;;;21.34;58.88
69535;BME280;56754;51.568;5.048;2022-09-09T08:39:43;100586.66;;;21.33;58.66
69535;BME280;56754;51.568;5.048;2022-09-09T08:53:22;100601.81;;;21.34;59.38
69535;BME280;56754;51.568;5.048;2022-09-09T08:55:54;100598.72;;;21.35;59.43
69535;BME280;56754;51.568;5.048;2022-09-09T08:58:33;100599.50;;;21.36;58.76
69535;BME280;56754;51.568;5.048;2022-09-09T09:04:18;100612.69;;;21.34;59.23
69535;BME280;56754;51.568;5.048;2022-09-09T09:11:55;100614.22;;;21.35;58.54
69535;BME280;56754;51.568;5.048;2022-09-09T09:14:23;100620.47;;;21.35;58.21
69535;BME280;56754;51.568;5.048;2022-09-09T09:16:56;100627.03;;;21.34;58.92
69535;BME280;56754;51.568;5.048;2022-09-09T09:19:23;100619.66;;;21.35;57.86
69535;BME280;56754;51.568;5.048;2022-09-09T09:21:56;100628.22;;;21.33;58.86
69535;BME280;56754;51.568;5.048;2022-09-09T09:24:34;100627.44;;;21.33;58.32
69535;BME280;56754;51.568;5.048;2022-09-09T09:29:50;100625.50;;;21.30;58.21
69535;BME280;56754;51.568;5.048;2022-09-09T09:32:20;100629.75;;;21.31;59.10
69535;BME280;56754;51.568;5.048;2022-09-09T09:34:57;100629.75;;;21.31;58.45
69535;BME280;56754;51.568;5.048;2022-09-09T09:37:30;100634.44;;;21.30;58.46
69535;BME280;56754;51.568;5.048;2022-09-09T09:40:06;100623.56;;;21.30;58.48
69535;BME280;56754;51.568;5.048;2022-09-09T09:42:32;100628.22;;;21.30;58.68
69535;BME280;56754;51.568;5.048;2022-09-09T09:45:16;100624.31;;;21.31;58.53
69535;BME280;56754;51.568;5.048;2022-09-09T09:47:44;100626.28;;;21.30;59.09
69535;BME280;56754;51.568;5.048;2022-09-09T09:50:17;100624.31;;;21.31;58.55
69535;BME280;56754;51.568;5.048;2022-09-09T09:52:56;100619.66;;;21.31;58.78
69535;BME280;56754;51.568;5.048;2022-09-09T09:55:22;100625.88;;;21.32;58.92
69535;BME280;56754;51.568;5.048;2022-09-09T09:57:48;100621.59;;;21.31;58.88
69535;BME280;56754;51.568;5.048;2022-09-09T10:00:16;100612.28;;;21.32;58.89
69535;BME280;56754;51.568;5.048;2022-09-09T10:02:43;100617.72;;;21.32;59.02
69535;BME280;56754;51.568;5.048;2022-09-09T10:05:19;100620.84;;;21.34;58.95
69535;BME280;56754;51.568;5.048;2022-09-09T10:07:44;100619.31;;;21.37;59.38
69535;BME280;56754;51.568;5.048;2022-09-09T10:10:21;100618.16;;;21.38;59.18
69535;BME280;56754;51.568;5.048;2022-09-09T10:16:03;100624.38;;;21.42;59.58
69535;BME280;56754;51.568;5.048;2022-09-09T10:54:28;100606.50;;;21.51;58.91
69535;BME280;56754;51.568;5.048;2022-09-09T10:56:32;100613.47;;;21.52;58.90
69535;BME280;56754;51.568;5.048;2022-09-09T10:59:12;100618.91;;;21.52;59.11
69535;BME280;56754;51.568;5.048;2022-09-09T11:01:46;100616.19;;;21.52;58.88
69535;BME280;56754;51.568;5.048;2022-09-09T11:04:25;100621.28;;;21.54;58.87
69535;BME280;56754;51.568;5.048;2022-09-09T11:06:56;100615.44;;;21.52;58.92
69535;BME280;56754;51.568;5.048;2022-09-09T11:09:24;100622.81;;;21.51;59.00
69535;BME280;56754;51.568;5.048;2022-09-09T11:11:53;100624.34;;;21.52;59.02
69535;BME280;56754;51.568;5.048;2022-09-09T11:17:36;100622.81;;;21.51;59.38
69535;BME280;56754;51.568;5.048;2022-09-09T11:20:05;100622.03;;;21.51;59.97
69535;BME280;56754;51.568;5.048;2022-09-09T11:22:34;100624.75;;;21.51;59.53
69535;BME280;56754;51.568;5.048;2022-09-09T11:25:06;100618.91;;;21.52;59.26
69535;BME280;56754;51.568;5.048;2022-09-09T11:36:13;100620.84;;;21.59;59.68
69535;BME280;56754;51.568;5.048;2022-09-09T11:41:11;100618.16;;;21.63;59.70
69535;BME280;56754;51.568;5.048;2022-09-09T11:43:45;100618.91;;;21.67;59.40
69535;BME280;56754;51.568;5.048;2022-09-09T11:46:13;100618.91;;;21.67;59.39
69535;BME280;56754;51.568;5.048;2022-09-09T11:48:42;100624.75;;;21.69;59.91
69535;BME280;56754;51.568;5.048;2022-09-09T11:51:13;100635.22;;;21.70;60.03
69535;BME280;56754;51.568;5.048;2022-09-09T11:54:02;100630.97;;;21.73;59.62
69535;BME280;56754;51.568;5.048;2022-09-09T11:58:59;100625.91;;;21.75;59.99
69535;BME280;56754;51.568;5.048;2022-09-09T12:01:36;100632.91;;;21.76;59.48
69535;BME280;56754;51.568;5.048;2022-09-09T12:06:52;100618.16;;;21.80;59.59
69535;BME280;56754;51.568;5.048;2022-09-09T12:11:50;100623.94;;;21.83;59.53
69535;BME280;56754;51.568;5.048;2022-09-09T12:14:21;100627.47;;;21.83;59.18
69535;BME280;56754;51.568;5.048;2022-09-09T12:16:47;100616.94;;;21.85;59.23
69535;BME280;56754;51.568;5.048;2022-09-09T12:19:14;100621.25;;;21.86;59.08
69535;BME280;56754;51.568;5.048;2022-09-09T12:22:03;100632.50;;;21.88;59.28
69535;BME280;56754;51.568;5.048;2022-09-09T12:24:35;100622.78;;;21.87;58.95
69535;BME280;56754;51.568;5.048;2022-09-09T12:27:08;100624.34;;;21.88;59.02
69535;BME280;56754;51.568;5.048;2022-09-09T12:29:54;100621.25;;;21.86;59.06
69535;BME280;56754;51.568;5.048;2022-09-09T12:32:26;100613.84;;;21.87;59.45
69535;BME280;56754;51.568;5.048;2022-09-09T12:40:22;100622.00;;;21.90;59.21
69535;BME280;56754;51.568;5.048;2022-09-09T12:42:48;100616.19;;;21.92;59.19
69535;BME280;56754;51.568;5.048;2022-09-09T12:45:18;100612.28;;;21.93;59.18
69535;BME280;56754;51.568;5.048;2022-09-09T12:48:05;100606.44;;;21.94;58.68
69535;BME280;56754;51.568;5.048;2022-09-09T12:50:34;100618.13;;;21.95;58.99
69535;BME280;56754;51.568;5.048;2022-09-09T12:53:22;100615.78;;;21.97;58.46
69535;BME280;56754;51.568;5.048;2022-09-09T12:55:54;100602.16;;;21.97;58.49
69535;BME280;56754;51.568;5.048;2022-09-09T12:58:21;100605.66;;;21.97;58.28
69535;BME280;56754;51.568;5.048;2022-09-09T13:00:51;100601.00;;;21.98;58.22
69535;BME280;56754;51.568;5.048;2022-09-09T13:03:18;100608.00;;;21.99;58.39
69535;BME280;56754;51.568;5.048;2022-09-09T13:05:44;100603.31;;;21.99;58.13
69535;BME280;56754;51.568;5.048;2022-09-09T13:08:11;100614.22;;;21.99;58.31
69535;BME280;56754;51.568;5.048;2022-09-09T13:10:53;100609.94;;;21.98;58.05
69535;BME280;56754;51.568;5.048;2022-09-09T13:13:26;100600.59;;;21.99;57.85
69535;BME280;56754;51.568;5.048;2022-09-09T13:15:57;100603.31;;;21.99;58.26
69535;BME280;56754;51.568;5.048;2022-09-09T13:18:27;100596.69;;;22.00;58.07
69535;BME280;56754;51.568;5.048;2022-09-09T13:20:53;100590.13;;;22.01;58.07
69535;BME280;56754;51.568;5.048;2022-09-09T13:23:36;100589.72;;;22.03;57.99
69535;BME280;56754;51.568;5.048;2022-09-09T13:26:23;100596.72;;;22.04;58.52
69535;BME280;56754;51.568;5.048;2022-09-09T13:28:49;100585.84;;;22.04;58.04
69535;BME280;56754;51.568;5.048;2022-09-09T13:33:53;100595.94;;;22.07;59.02
69535;BME280;56754;51.568;5.048;2022-09-09T13:36:28;100598.25;;;22.09;59.05
69535;BME280;56754;51.568;5.048;2022-09-09T13:38:56;100593.56;;;22.09;58.93
69535;BME280;56754;51.568;5.048;2022-09-09T13:41:24;100594.75;;;22.12;58.06
69535;BME280;56754;51.568;5.048;2022-09-09T13:43:50;100592.41;;;22.14;58.17
69535;BME280;56754;51.568;5.048;2022-09-09T13:46:37;100594.75;;;22.19;58.88
69535;BME280;56754;51.568;5.048;2022-09-09T13:49:20;100587.34;;;22.23;58.89
69535;BME280;56754;51.568;5.048;2022-09-09T13:51:48;100595.50;;;22.26;58.28
69535;BME280;56754;51.568;5.048;2022-09-09T13:54:16;100593.56;;;22.31;57.90
69535;BME280;56754;51.568;5.048;2022-09-09T13:56:42;100594.72;;;22.33;58.38
69535;BME280;56754;51.568;5.048;2022-09-09T13:59:12;100589.63;;;22.35;57.87
69535;BME280;56754;51.568;5.048;2022-09-09T14:01:38;100591.97;;;22.37;58.11
69535;BME280;56754;51.568;5.048;2022-09-09T14:04:04;100597.41;;;22.37;58.36
69535;BME280;56754;51.568;5.048;2022-09-09T14:06:29;100598.19;;;22.37;58.18
69535;BME280;56754;51.568;5.048;2022-09-09T14:08:55;100592.75;;;22.37;58.44
69535;BME280;56754;51.568;5.048;2022-09-09T14:11:21;100594.28;;;22.38;57.72
69535;BME280;56754;51.568;5.048;2022-09-09T14:13:47;100595.06;;;22.39;58.07
69535;BME280;56754;51.568;5.048;2022-09-09T14:16:12;100602.47;;;22.38;58.36
69535;BME280;56754;51.568;5.048;2022-09-09T14:18:38;100597.00;;;22.38;57.64
69535;BME280;56754;51.568;5.048;2022-09-09T14:21:03;100591.97;;;22.37;57.93
69535;BME280;56754;51.568;5.048;2022-09-09T14:23:28;100588.47;;;22.36;56.89
69535;BME280;56754;51.568;5.048;2022-09-09T14:28:19;100589.66;;;22.32;58.11
69535;BME280;56754;51.568;5.048;2022-09-09T14:30:44;100599.38;;;22.29;58.40
69535;BME280;56754;51.568;5.048;2022-09-09T14:33:14;100602.50;;;22.28;58.44
69535;BME280;56754;51.568;5.048;2022-09-09T14:35:40;100609.53;;;22.25;58.92
69535;BME280;56754;51.568;5.048;2022-09-09T14:38:05;100616.13;;;22.24;57.52
69535;BME280;56754;51.568;5.048;2022-09-09T14:40:31;100613.38;;;22.24;58.19
69535;BME280;56754;51.568;5.048;2022-09-09T14:42:57;100630.91;;;22.23;57.07
69535;BME280;56754;51.568;5.048;2022-09-09T14:45:23;100640.25;;;22.22;58.12
69535;BME280;56754;51.568;5.048;2022-09-09T14:47:49;100644.13;;;22.21;59.00
69535;BME280;56754;51.568;5.048;2022-09-09T14:50:14;100641.03;;;22.19;59.09
69535;BME280;56754;51.568;5.048;2022-09-09T14:52:39;100630.09;;;22.15;59.05
69535;BME280;56754;51.568;5.048;2022-09-09T14:55:05;100628.16;;;22.12;59.40
69535;BME280;56754;51.568;5.048;2022-09-09T14:57:31;100642.19;;;22.11;59.45
69535;BME280;56754;51.568;5.048;2022-09-09T14:59:56;100636.75;;;22.07;59.19
69535;BME280;56754;51.568;5.048;2022-09-09T15:02:21;100630.53;;;22.03;59.38
69535;BME280;56754;51.568;5.048;2022-09-09T15:04:46;100629.38;;;22.00;59.38
69535;BME280;56754;51.568;5.048;2022-09-09T15:07:11;100629.38;;;21.97;59.55
69535;BME280;56754;51.568;5.048;2022-09-09T15:09:37;100632.50;;;21.95;59.79
69535;BME280;56754;51.568;5.048;2022-09-09T15:12:02;100632.09;;;21.93;59.67
69535;BME280;56754;51.568;5.048;2022-09-09T15:14:28;100640.28;;;21.93;60.05